Latest Weather Observations for Noarlunga

IDS60801

Issued at 2:02 pm CST Saturday 1 October 2016 (issued every 30 minutes, with the page automatically refreshed every 10 minutes)

About weather observations | Map of weather stations | Latest weather observations for SA | Other Formats
Station Details ID: 023885 Name: NOARLUNGA Lat: -35.16 Lon: 138.51 Height: 55.0 m
Data from the previous 72 hours. | See also: Recent months at Noarlunga
Date/Time
CST
Temp
°C
App
Temp
°C
Dew
Point
°C
Rel
Hum
%
Delta-T
°C
Wind Press
QNH
hPa
Press
MSL
hPa
Rain since
9am
mm
Dir  Spd
km/h
Gust
km/h
Spd
kts
Gust
kts
01/02:00pm 16.8 11.3 7.7 55 4.6 N 26 37 14 20 - - 0.0
01/01:30pm 17.1 12.5 8.0 55 4.6 N 22 35 12 19 - - 0.0
01/01:00pm 14.6 10.0 6.4 58 4.0 N 20 30 11 16 - - 0.0
01/12:30pm 13.9 8.4 5.8 58 3.8 N 24 35 13 19 - - 0.0
01/12:00pm 14.5 9.6 6.8 60 3.8 NNW 22 35 12 19 - - 0.0
01/11:30am 13.4 7.5 5.8 60 3.6 NNW 26 37 14 20 - - 0.0
01/11:00am 13.3 7.9 6.4 63 3.3 NNW 24 35 13 19 - - 0.0
01/10:30am 13.4 8.7 6.0 61 3.5 N 20 37 11 20 - - 0.0
01/10:00am 12.9 8.0 5.1 59 3.6 NNW 20 30 11 16 - - 0.0
01/09:30am 13.0 8.3 5.2 59 3.6 NNW 19 30 10 16 - - 0.0
01/09:00am 12.4 8.1 5.1 61 3.4 NNW 17 28 9 15 - - 2.4
01/08:30am 12.9 9.4 5.3 60 3.5 NNW 13 20 7 11 - - 2.4
01/08:00am 11.9 8.2 4.4 60 3.4 NW 13 20 7 11 - - 2.4
01/07:30am 11.6 7.9 4.3 61 3.3 WNW 13 19 7 10 - - 2.4
01/07:00am 11.4 7.7 4.2 61 3.2 NW 13 20 7 11 - - 2.4
01/06:30am 11.3 7.9 4.1 61 3.2 WNW 11 19 6 10 - - 2.4
01/06:00am 11.0 7.6 3.8 61 3.2 WNW 11 19 6 10 - - 2.4
01/05:30am 11.1 7.3 4.1 62 3.1 WNW 13 20 7 11 - - 2.4
01/05:00am 11.1 6.7 4.8 65 2.9 NW 17 26 9 14 - - 2.4
01/04:30am 11.2 6.4 4.4 63 3.1 WNW 19 30 10 16 - - 2.4
01/04:00am 11.2 7.1 6.3 72 2.3 WNW 17 24 9 13 - - 2.4
01/03:30am 11.2 6.4 4.9 65 2.9 WNW 19 28 10 15 - - 2.4
01/03:00am 11.0 7.1 6.9 76 2.0 WNW 17 26 9 14 - - 2.4
01/02:30am 10.8 6.5 7.1 78 1.8 WNW 19 28 10 15 - - 2.4
01/02:00am 10.4 5.5 6.7 78 1.7 WNW 22 35 12 19 - - 2.4
01/01:30am 10.8 6.6 7.5 80 1.6 WNW 19 32 10 17 - - 2.2
01/01:00am 10.8 6.9 7.3 79 1.7 WNW 17 28 9 15 - - 2.2
01/12:30am 10.7 7.5 8.3 85 1.2 WNW 15 24 8 13 - - 2.2
01/12:00am 10.6 7.3 8.0 84 1.3 W 15 26 8 14 - - 2.2
 
Date/Time
CST
Temp
°C
App
Temp
°C
Dew
Point
°C
Rel
Hum
%
Delta-T
°C
Wind Press
QNH
hPa
Press
MSL
hPa
Rain since
9am
mm
Dir  Spd
km/h
Gust
km/h
Spd
kts
Gust
kts
30/11:30pm 10.6 7.7 8.2 85 1.2 W 13 20 7 11 - - 2.2
30/11:00pm 10.3 7.5 8.4 88 0.9 W 13 19 7 10 - - 2.2
30/10:30pm 10.6 7.5 8.7 88 0.9 W 15 24 8 13 - - 2.0
30/10:00pm 10.9 7.9 7.6 80 1.6 W 13 22 7 12 - - 1.2
30/09:30pm 10.8 7.9 8.2 84 1.3 WSW 13 20 7 11 - - 1.2
30/09:00pm 10.5 7.3 8.3 86 1.1 WSW 15 26 8 14 - - 1.0
30/08:30pm 11.0 7.5 8.6 85 1.2 WSW 17 30 9 16 - - 1.0
30/08:00pm 10.8 7.6 8.6 86 1.1 W 15 24 8 13 - - 0.8
30/07:30pm 11.8 7.7 7.9 77 1.9 WSW 19 28 10 15 - - 0.0
30/07:00pm 12.3 9.3 7.8 74 2.2 WSW 13 22 7 12 - - 0.0
30/06:30pm 12.3 9.0 8.0 75 2.1 WSW 15 28 8 15 - - 0.0
30/06:00pm 12.4 8.3 7.7 73 2.3 WSW 19 32 10 17 - - 0.0
30/05:30pm 12.8 8.7 7.9 72 2.4 SW 19 33 10 18 - - 0.0
30/05:00pm 13.0 8.9 7.7 70 2.6 SW 19 35 10 19 - - 0.0
30/04:30pm 13.6 8.9 7.8 68 2.9 SW 22 35 12 19 - - 0.0
30/04:00pm 13.5 9.2 7.9 69 2.8 WSW 20 32 11 17 - - 0.0
30/03:30pm 13.7 8.7 7.9 68 2.9 WSW 24 41 13 22 - - 0.0
30/03:00pm 14.5 10.4 8.7 68 2.9 WSW 20 30 11 16 - - 0.0
30/02:30pm 13.9 9.3 8.3 69 2.8 WSW 22 32 12 17 - - 0.0
30/02:00pm 14.1 8.3 8.1 67 3.0 WSW 28 39 15 21 - - 0.0
30/01:30pm 14.5 9.6 8.5 67 3.0 WSW 24 37 13 20 - - 0.0
30/01:00pm 14.1 8.9 8.7 70 2.7 WSW 26 41 14 22 - - 0.0
30/12:39pm 14.0 8.4 8.8 71 2.6 WSW 28 48 15 26 - - 0.0
30/12:30pm 13.4 6.9 8.3 71 2.5 WSW 32 46 17 25 - - 0.0
30/12:00pm 13.5 8.5 7.9 69 2.8 WSW 24 35 13 19 - - 0.0
30/11:34am 12.7 7.1 8.8 77 2.0 WSW 28 54 15 29 - - 0.0
30/11:30am 13.2 8.1 9.1 76 2.1 WSW 26 54 14 29 - - 0.0
30/11:00am 12.8 8.8 9.1 78 1.9 WSW 20 33 11 18 - - 0.0
30/10:30am 13.6 8.9 9.1 74 2.3 WSW 24 37 13 20 - - 0.0
30/10:00am 13.5 7.5 8.8 73 2.4 WSW 30 44 16 24 - - 0.0
30/09:30am 12.9 7.0 9.0 77 2.0 SW 30 44 16 24 - - 0.0
30/09:00am 12.6 7.2 9.6 82 1.5 SW 28 43 15 23 - - 4.2
30/08:30am 12.4 6.1 9.1 80 1.7 SW 32 46 17 25 - - 4.2
30/08:00am 11.7 6.3 9.6 87 1.1 WSW 28 48 15 26 - - 4.0
30/07:37am 11.7 6.4 9.8 88 1.0 WSW 28 46 15 25 - - 3.8
30/07:30am 11.6 7.3 9.5 87 1.1 W 22 33 12 18 - - 3.8
30/07:00am 12.2 8.0 7.5 73 2.3 WSW 19 32 10 17 - - 3.6
30/06:30am 12.2 7.6 8.1 76 2.0 WSW 22 35 12 19 - - 3.6
30/06:00am 11.7 8.4 8.0 78 1.8 WSW 15 22 8 12 - - 3.6
30/05:30am 11.5 6.6 7.0 74 2.2 WSW 22 32 12 17 - - 3.6
30/05:00am 11.7 8.1 8.2 79 1.7 WSW 17 30 9 16 - - 3.6
30/04:30am 11.4 7.2 7.3 76 2.0 SW 19 28 10 15 - - 3.6
30/04:00am 11.2 6.6 8.2 82 1.5 WSW 22 37 12 20 - - 3.6
30/03:30am 11.8 7.7 7.7 76 2.0 SW 19 30 10 16 - - 3.6
30/03:00am 10.0 8.0 7.3 83 1.3 SW 7 13 4 7 - - 3.6
30/02:30am 9.7 7.9 7.1 84 1.2 SW 6 9 3 5 - - 3.6
30/02:00am 10.0 8.1 6.9 81 1.5 SSW 6 9 3 5 - - 3.6
30/01:30am 10.4 7.6 6.9 79 1.7 SSW 11 19 6 10 - - 3.6
30/01:00am 10.1 6.9 6.8 80 1.6 SSW 13 20 7 11 - - 3.6
30/12:30am 10.3 6.8 7.4 82 1.4 SSW 15 28 8 15 - - 3.6
30/12:00am 10.3 5.5 7.2 81 1.5 SSW 22 35 12 19 - - 3.6
 
Date/Time
CST
Temp
°C
App
Temp
°C
Dew
Point
°C
Rel
Hum
%
Delta-T
°C
Wind Press
QNH
hPa
Press
MSL
hPa
Rain since
9am
mm
Dir  Spd
km/h
Gust
km/h
Spd
kts
Gust
kts
29/11:30pm 11.4 5.0 9.3 87 1.1 W 33 54 18 29 - - 3.4
29/11:00pm 11.4 3.3 8.8 84 1.3 W 41 69 22 37 - - 3.2
29/10:30pm 11.1 3.0 8.7 85 1.2 W 41 63 22 34 - - 3.2
29/10:00pm 11.1 3.7 8.3 83 1.4 W 37 63 20 34 - - 2.6
29/09:30pm 11.3 3.5 8.2 81 1.5 W 39 72 21 39 - - 2.4
29/09:00pm 11.5 3.2 7.8 78 1.8 W 41 65 22 35 - - 2.2
29/08:30pm 11.9 3.2 7.8 76 2.0 WSW 43 70 23 38 - - 2.0
29/08:00pm 11.8 3.6 8.3 79 1.7 W 41 65 22 35 - - 2.0
29/07:30pm 11.8 3.2 8.1 78 1.8 WSW 43 74 23 40 - - 2.0
29/07:00pm 11.7 4.0 8.7 82 1.5 WSW 39 72 21 39 - - 2.0
29/06:30pm 11.6 3.9 8.6 82 1.5 W 39 69 21 37 - - 2.0
29/06:00pm 11.6 3.1 8.6 82 1.5 WSW 43 65 23 35 - - 1.8
29/05:30pm 11.9 3.8 8.7 81 1.6 WSW 41 63 22 34 - - 1.8
29/05:00pm 11.7 3.7 8.9 83 1.4 WSW 41 74 22 40 - - 1.8
29/04:59pm 11.6 3.5 8.8 83 1.4 WSW 41 74 22 40 - - 1.8
29/04:35pm 11.5 6.1 9.6 88 1.0 W 28 48 15 26 - - 0.6
29/04:30pm 11.7 7.0 9.4 86 1.2 W 24 44 13 24 - - 0.4
29/04:00pm 12.4 6.7 8.5 77 1.9 WSW 28 46 15 25 - - 0.2
29/03:41pm 13.1 7.5 8.8 75 2.2 WSW 28 46 15 25 - - 0.2
29/03:30pm 12.9 8.6 9.2 78 1.9 WSW 22 35 12 19 - - 0.2
29/03:00pm 12.5 9.6 9.7 83 1.4 W 15 24 8 13 - - 0.2
29/02:30pm 12.8 9.2 8.5 75 2.1 WNW 17 26 9 14 - - 0.0
29/02:00pm 12.9 8.6 8.0 72 2.4 WNW 20 30 11 16 - - 0.0
29/01:30pm 13.5 8.8 7.9 69 2.8 WNW 22 35 12 19 - - 0.0
29/01:00pm 14.3 10.1 7.6 64 3.3 W 19 35 10 19 - - 0.0
29/12:30pm 14.4 8.6 6.3 58 3.9 W 26 41 14 22 - - 0.0
29/12:00pm 13.6 9.2 7.6 67 3.0 WSW 20 35 11 19 - - 0.0
29/11:30am 13.6 7.2 6.9 64 3.3 WSW 30 44 16 24 - - 0.0
29/11:14am 13.4 7.2 7.8 69 2.8 WSW 30 48 16 26 - - 0.0
29/11:00am 13.2 6.2 7.0 66 3.0 WSW 33 52 18 28 - - 0.0
29/10:30am 12.8 5.3 8.1 73 2.3 WSW 37 61 20 33 - - 0.0
29/10:00am 11.4 3.5 7.9 79 1.7 W 39 67 21 36 - - 0.0
29/09:30am 12.8 5.6 7.7 71 2.5 WSW 35 59 19 32 - - 0.0
29/09:01am 11.6 4.8 7.7 77 1.9 WSW 33 54 18 29 - - 0.0
29/09:00am 11.6 4.8 7.7 77 1.9 WSW 33 50 18 27 - - -
29/08:44am 11.3 4.1 7.6 78 1.8 WSW 35 56 19 30 - - -
29/08:30am 11.6 4.8 7.9 78 1.8 WSW 33 50 18 27 - - -
29/08:03am 11.3 4.6 8.2 81 1.5 WSW 33 52 18 28 - - -
29/08:00am 11.2 4.1 8.1 81 1.5 WSW 35 54 19 29 - - -
29/07:36am 10.8 3.4 8.4 85 1.2 WNW 37 65 20 35 - - -
29/07:31am 10.7 3.3 8.3 85 1.2 NW 37 65 20 35 - - -
29/07:30am 10.7 3.7 8.3 85 1.2 NW 35 50 19 27 - - -
29/07:09am 10.6 4.7 7.7 82 1.4 NW 28 48 15 26 - - -
29/07:00am 10.3 4.9 8.1 86 1.1 NNW 26 37 14 20 - - -
29/06:43am 9.9 3.4 8.0 88 0.9 NNW 32 50 17 27 - - -
29/06:30am 8.3 0.1 6.4 88 0.9 N 39 74 21 40 - - -
29/06:00am 9.0 0.6 7.5 90 0.7 N 41 67 22 36 - - -
29/05:30am 7.8 -0.2 5.9 88 0.9 N 37 63 20 34 - - -
29/05:00am 7.8 -0.5 5.9 88 0.9 N 39 61 21 33 - - -
29/04:30am 9.1 -0.9 6.0 81 1.4 N 48 69 26 37 - - -
29/04:00am 8.8 -0.4 6.4 85 1.1 N 44 69 24 37 - - -
29/03:30am 8.6 -0.5 5.7 82 1.3 N 43 65 23 35 - - -
29/03:00am 8.7 0.0 6.0 83 1.2 NNW 41 65 22 35 - - 1.0
29/02:30am 9.6 1.2 5.6 76 1.8 NNW 39 59 21 32 - - -
29/02:00am 10.0 1.1 5.2 72 2.2 NNW 41 65 22 35 - - -
29/01:30am 9.3 1.0 6.0 80 1.5 NNW 39 61 21 33 - - -
29/01:00am 10.4 2.2 5.0 69 2.5 NNW 37 57 20 31 - - -
29/12:30am 10.7 2.8 4.6 66 2.8 NNW 35 63 19 34 - - -
29/12:02am 10.7 2.9 5.0 68 2.6 NNW 35 54 19 29 - - -
29/12:00am 10.7 2.5 4.8 67 2.7 NNW 37 54 20 29 - - -
 
Date/Time
CST
Temp
°C
App
Temp
°C
Dew
Point
°C
Rel
Hum
%
Delta-T
°C
Wind Press
QNH
hPa
Press
MSL
hPa
Rain since
9am
mm
Dir  Spd
km/h
Gust
km/h
Spd
kts
Gust
kts
28/11:30pm 11.1 4.0 5.4 68 2.6 NNW 32 56 17 30 - - -
28/11:00pm 11.3 3.8 6.2 71 2.4 NNW 35 61 19 33 - - -
28/10:36pm 11.5 5.4 6.8 73 2.2 NW 28 46 15 25 - - -
28/10:30pm 11.7 5.0 7.2 74 2.2 NW 32 46 17 25 - - -
28/10:09pm 12.0 6.0 6.9 71 2.4 NW 28 46 15 25 - - -
28/10:00pm 12.2 6.3 6.0 66 2.9 NW 26 43 14 23 - - -
28/09:30pm 12.0 4.9 6.5 69 2.6 NW 33 52 18 28 - - -
28/09:24pm 11.9 5.8 6.8 71 2.4 NW 28 48 15 26 - - -
28/09:00pm 11.7 5.3 6.8 72 2.3 WNW 30 46 16 25 - - -
28/08:30pm 11.8 6.4 8.1 78 1.8 WNW 26 43 14 23 - - -
28/08:00pm 11.9 5.8 8.4 79 1.7 WNW 30 50 16 27 - - -
28/07:57pm 11.8 5.7 8.3 79 1.7 WNW 30 50 16 27 - - -
28/07:30pm 11.3 6.2 7.8 79 1.7 NW 24 37 13 20 - - -
28/07:22pm 11.6 5.9 8.5 81 1.5 NW 28 46 15 25 - - -
28/07:00pm 12.3 7.0 8.6 78 1.8 NW 26 44 14 24 - - 20.2
28/06:30pm 12.4 8.0 8.9 79 1.8 WNW 22 35 12 19 - - 20.2
28/06:00pm 12.6 6.5 9.6 82 1.5 W 32 50 17 27 - - 20.2
28/05:37pm 13.5 8.2 9.9 79 1.9 NW 28 61 15 33 - - 20.2
28/05:30pm 14.2 11.0 11.9 86 1.2 NW 20 32 11 17 - - 20.2
28/05:00pm 14.5 11.7 12.7 89 1.0 NW 19 26 10 14 - - 20.0
28/04:30pm 15.2 12.8 12.5 84 1.5 NNE 17 37 9 20 - - 15.6
28/04:00pm 14.6 13.7 10.6 77 2.1 ESE 6 13 3 7 - - 11.0
28/03:30pm 16.6 12.1 10.2 66 3.4 NE 24 39 13 21 - - 10.2
28/03:00pm 15.5 11.4 10.1 70 2.8 ENE 22 39 12 21 - - 10.2
28/02:30pm 14.1 10.3 9.7 75 2.3 ENE 20 35 11 19 - - 10.2

Other Formats:

Comma delimited format used in spreadsheet applications
http://www.bom.gov.au/fwo/IDS60801/IDS60801.94808.axf

JavaScript Object Notation format (JSON) in row-major order
http://www.bom.gov.au/fwo/IDS60801/IDS60801.94808.json